Time;durP1;ratioP1;P1;durP2;ratioP2;P2;SDS_P1;SDS_P2;PMS_P1;PMS_P2;Temp;Humidity;BMP_temperature;BMP_pressure;BME280_temperature;BME280_humidity;BME280_pressure;Samples;Min_cycle;Max_cycle;Signal;HPM_P1;HPM_P2
2023/03/20 00:02:23;;;;;;;4.25;3.85;;;;;;;9.94;100.00;100069.50;4941164;29;20536;-79
2023/03/20 00:04:52;;;;;;;6.65;3.42;;;;;;;9.92;100.00;100069.66;4937877;29;20078;-79
2023/03/20 00:07:20;;;;;;;5.60;4.13;;;;;;;9.91;100.00;100080.34;4943298;29;20031;-79
2023/03/20 00:09:49;;;;;;;5.50;3.97;;;;;;;9.96;100.00;100077.28;4916622;29;20035;-79
2023/03/20 00:12:24;;;;;;;4.10;3.75;;;;;;;9.95;100.00;100076.47;4930530;29;20035;-79
2023/03/20 00:14:53;;;;;;;4.57;4.05;;;;;;;9.95;100.00;100079.09;4930349;29;20039;-79
2023/03/20 00:17:21;;;;;;;6.70;4.18;;;;;;;9.93;100.00;100083.69;4940638;29;20062;-79
2023/03/20 00:19:49;;;;;;;7.32;4.35;;;;;;;9.97;100.00;100076.31;4930440;29;20119;-79
2023/03/20 00:22:21;;;;;;;4.97;4.43;;;;;;;9.96;100.00;100069.34;4925652;29;20433;-79
2023/03/20 00:24:50;;;;;;;7.18;4.95;;;;;;;9.97;100.00;100063.09;4941952;29;20106;-79
2023/03/20 00:27:18;;;;;;;5.05;4.38;;;;;;;9.98;100.00;100059.47;4927381;29;20035;-79
2023/03/20 00:29:47;;;;;;;5.80;4.65;;;;;;;9.99;100.00;100054.03;4930478;29;20098;-78
2023/03/20 00:32:15;;;;;;;5.13;4.40;;;;;;;9.98;100.00;100059.47;4932053;29;20495;-79
2023/03/20 00:34:44;;;;;;;5.72;5.07;;;;;;;10.00;100.00;100055.69;4927339;29;20114;-79
2023/03/20 00:37:13;;;;;;;4.90;4.13;;;;;;;9.99;100.00;100066.41;4908752;29;20408;-79
2023/03/20 00:39:41;;;;;;;7.95;4.40;;;;;;;10.02;100.00;100080.16;4916618;29;20042;-79
2023/03/20 00:42:20;;;;;;;5.03;4.50;;;;;;;10.03;100.00;100084.44;4946015;29;20086;-79
2023/03/20 00:44:53;;;;;;;8.43;4.55;;;;;;;10.03;100.00;100071.25;4950451;29;20031;-79
2023/03/20 00:47:24;;;;;;;4.93;4.20;;;;;;;10.00;100.00;100060.97;4942339;29;20551;-79
2023/03/20 00:49:55;;;;;;;6.28;4.93;;;;;;;10.01;100.00;100062.66;4949641;28;20028;-79
2023/03/20 00:52:24;;;;;;;7.03;4.50;;;;;;;10.00;100.00;100066.25;4906425;29;20058;-79
2023/03/20 00:54:52;;;;;;;8.25;4.53;;;;;;;10.01;100.00;100062.66;4927797;28;20578;-80
2023/03/20 00:57:32;;;;;;;5.70;4.90;;;;;;;10.03;100.00;100058.03;4944554;28;20472;-78
2023/03/20 01:00:34;;;;;;;6.43;4.53;;;;;;;10.01;100.00;100056.53;4960309;28;20039;-79
2023/03/20 01:03:18;;;;;;;6.50;4.97;;;;;;;10.03;100.00;100070.44;4945254;28;20039;-79
2023/03/20 01:05:49;;;;;;;6.03;4.63;;;;;;;10.02;100.00;100056.38;4944549;28;20038;-77
2023/03/20 01:08:22;;;;;;;7.75;5.78;;;;;;;10.02;100.00;100058.19;4943293;28;20032;-77
2023/03/20 01:10:53;;;;;;;6.55;5.60;;;;;;;10.02;100.00;100066.94;4947610;28;20488;-79
2023/03/20 01:13:27;;;;;;;7.00;5.22;;;;;;;9.98;100.00;100060.31;4948351;28;20126;-79
2023/03/20 01:15:58;;;;;;;8.57;6.18;;;;;;;9.99;100.00;100058.47;4949898;28;20039;-79
2023/03/20 01:18:28;;;;;;;8.63;5.55;;;;;;;9.97;100.00;100037.50;4932317;28;20475;-79
2023/03/20 01:20:59;;;;;;;9.50;6.32;;;;;;;9.96;100.00;100043.78;4942082;28;20031;-79
2023/03/20 01:23:28;;;;;;;9.52;5.90;;;;;;;9.96;100.00;100042.94;4960117;28;20039;-79
2023/03/20 01:25:57;;;;;;;9.38;6.47;;;;;;;9.96;100.00;100046.44;4969107;28;20108;-79
2023/03/20 01:28:32;;;;;;;10.40;6.82;;;;;;;9.98;100.00;100041.00;4932408;28;20037;-79
2023/03/20 01:31:02;;;;;;;9.07;6.43;;;;;;;9.99;100.00;100050.56;4957120;28;20454;-79
2023/03/20 01:33:32;;;;;;;9.48;6.68;;;;;;;10.01;100.00;100048.63;4965902;28;20062;-79
2023/03/20 01:36:00;;;;;;;7.25;6.55;;;;;;;10.01;100.00;100051.25;4969890;28;20033;-79
2023/03/20 01:38:29;;;;;;;11.57;6.80;;;;;;;10.05;100.00;100053.44;4951952;28;20479;-79
2023/03/20 01:41:16;;;;;;;8.00;7.20;;;;;;;10.06;100.00;100056.91;4919238;28;20880;-79
2023/03/20 01:43:46;;;;;;;10.48;6.40;;;;;;;10.06;100.00;100062.19;4973531;28;20038;-80
2023/03/20 01:46:31;;;;;;;8.77;6.65;;;;;;;10.06;100.00;100067.47;4941111;28;20149;-79
2023/03/20 01:49:18;;;;;;;8.38;6.20;;;;;;;10.10;100.00;100063.56;4928788;28;20050;-79
2023/03/20 01:51:49;;;;;;;10.50;6.38;;;;;;;10.08;100.00;100054.13;4944608;28;20492;-80
2023/03/20 01:54:17;;;;;;;9.45;6.85;;;;;;;10.08;100.00;100057.59;4937556;28;20133;-79
2023/03/20 01:57:14;;;;;;;11.25;6.18;;;;;;;10.08;100.00;100052.31;4943892;28;20411;-80
2023/03/20 01:59:45;;;;;;;9.65;6.78;;;;;;;10.07;100.00;100058.56;4931567;28;20035;-79
2023/03/20 02:02:21;;;;;;;12.82;7.22;;;;;;;10.05;100.00;100064.00;4963800;28;20023;-79
2023/03/20 02:04:55;;;;;;;9.50;6.85;;;;;;;10.04;100.00;100058.88;4932078;28;20046;-79
2023/03/20 02:07:24;;;;;;;11.43;6.90;;;;;;;10.02;100.00;100061.66;4947686;29;20118;-79
2023/03/20 02:10:07;;;;;;;9.30;5.78;;;;;;;10.03;100.00;100050.13;4934939;28;20027;-79
2023/03/20 02:12:43;;;;;;;7.90;6.32;;;;;;;10.01;100.00;100049.44;4935020;28;20056;-80
2023/03/20 02:15:17;;;;;;;14.50;6.40;;;;;;;10.00;100.00;100045.13;4954983;28;20098;-80
2023/03/20 02:18:00;;;;;;;8.15;5.93;;;;;;;9.99;100.00;100048.75;4936989;28;20381;-80
2023/03/20 02:20:55;;;;;;;8.95;5.82;;;;;;;10.01;100.00;100033.59;4936655;28;20387;-79
2023/03/20 02:23:44;;;;;;;7.57;6.40;;;;;;;9.98;100.00;100019.88;4952947;28;20039;-80
2023/03/20 02:26:43;;;;;;;12.48;6.15;;;;;;;9.97;100.00;100015.59;4945158;28;20031;-79
2023/03/20 02:29:15;;;;;;;9.43;6.10;;;;;;;9.94;100.00;100011.41;4933848;28;20042;-80
2023/03/20 02:31:56;;;;;;;7.50;6.07;;;;;;;10.00;100.00;100000.25;4958559;28;20476;-79
2023/03/20 02:34:31;;;;;;;7.53;5.32;;;;;;;9.99;100.00;100005.69;4932106;28;20442;-79
2023/03/20 02:37:02;;;;;;;6.33;5.63;;;;;;;9.96;100.00;100005.97;4947645;28;20062;-80
2023/03/20 02:39:52;;;;;;;8.05;5.22;;;;;;;9.95;100.00;99997.25;4912821;29;20059;-79
2023/03/20 02:42:20;;;;;;;7.70;5.20;;;;;;;9.91;100.00;99993.25;4956142;28;20042;-80
2023/03/20 02:45:00;;;;;;;8.55;5.22;;;;;;;9.88;100.00;99993.53;4935044;29;20492;-79
2023/03/20 02:47:41;;;;;;;8.45;4.93;;;;;;;9.89;100.00;100000.50;4945203;28;20053;-79
2023/03/20 02:50:37;;;;;;;6.20;4.88;;;;;;;9.87;100.00;100005.94;4957525;28;20042;-79
2023/03/20 02:53:20;;;;;;;10.93;5.60;;;;;;;9.87;100.00;100003.28;4955108;28;20030;-79
2023/03/20 02:55:55;;;;;;;8.07;4.93;;;;;;;9.88;100.00;99998.81;4945805;28;20407;-80
2023/03/20 02:59:12;;;;;;;7.90;5.32;;;;;;;9.89;100.00;100011.06;4935028;28;20090;-80
2023/03/20 03:01:47;;;;;;;6.95;4.68;;;;;;;9.86;100.00;100012.16;4884887;29;20041;-80
2023/03/20 03:04:22;;;;;;;6.85;5.13;;;;;;;9.88;100.00;100019.94;4936213;28;20047;-79
2023/03/20 03:06:54;;;;;;;6.35;4.93;;;;;;;9.89;100.00;100021.63;4955388;28;20050;-80
2023/03/20 03:09:28;;;;;;;5.70;4.88;;;;;;;9.90;100.00;100028.53;4963220;28;20034;-80
2023/03/20 03:12:07;;;;;;;7.20;5.20;;;;;;;9.90;100.00;100028.53;4939265;28;20030;-80
2023/03/20 03:14:40;;;;;;;7.65;4.45;;;;;;;9.89;100.00;100019.78;4922918;28;20038;-79
2023/03/20 03:17:17;;;;;;;6.88;4.63;;;;;;;9.90;100.00;100028.53;4966338;28;20034;-79
2023/03/20 03:19:49;;;;;;;5.57;4.72;;;;;;;9.91;100.00;100030.19;4943796;28;20035;-79
2023/03/20 03:22:20;;;;;;;7.07;4.63;;;;;;;9.91;100.00;100028.41;4931458;28;20035;-77
2023/03/20 03:24:52;;;;;;;9.32;4.28;;;;;;;9.94;100.00;100029.91;4931038;28;20102;-77
2023/03/20 03:27:25;;;;;;;13.73;4.20;;;;;;;9.93;100.00;100021.16;4938904;28;20484;-79
2023/03/20 03:30:14;;;;;;;6.60;3.90;;;;;;;9.95;100.00;100020.19;4940277;28;20035;-79
2023/03/20 03:33:19;;;;;;;4.43;3.70;;;;;;;9.93;100.00;100007.97;4929147;28;20035;-79
2023/03/20 03:35:49;;;;;;;10.15;4.18;;;;;;;9.93;100.00;100010.59;4936763;28;20042;-79
2023/03/20 03:38:31;;;;;;;8.00;3.95;;;;;;;9.95;100.00;100007.81;4935831;28;20062;-80
2023/03/20 03:41:31;;;;;;;7.32;3.78;;;;;;;9.97;100.00;100011.13;4947634;28;20035;-79
2023/03/20 03:44:19;;;;;;;5.30;3.17;;;;;;;9.94;100.00;100006.13;4948418;28;20035;-79
2023/03/20 03:47:19;;;;;;;2.17;2.08;;;;;;;9.96;100.00;100005.97;4937655;28;20035;-79
2023/03/20 03:49:56;;;;;;;2.88;1.60;;;;;;;9.98;100.00;100006.66;4948720;28;20450;-79
2023/03/20 03:52:27;;;;;;;4.75;1.35;;;;;;;9.99;100.00;100006.53;4936180;28;20443;-79
2023/03/20 03:55:00;;;;;;;5.80;1.30;;;;;;;10.00;100.00;100002.06;4944914;28;20061;-79
2023/03/20 03:57:35;;;;;;;8.93;1.52;;;;;;;10.03;100.00;100005.22;4949347;28;20034;-79
2023/03/20 04:00:10;;;;;;;2.05;0.85;;;;;;;10.03;100.00;100005.22;4939154;28;20038;-80
2023/03/20 04:02:44;;;;;;;1.58;0.90;;;;;;;10.05;100.00;99997.16;4968930;28;20121;-77
2023/03/20 04:05:14;;;;;;;7.63;0.90;;;;;;;10.06;100.00;99996.19;4931029;29;20043;-77
2023/03/20 04:07:52;;;;;;;2.15;0.88;;;;;;;10.09;100.00;99985.31;4953401;28;20043;-80
2023/03/20 04:10:22;;;;;;;1.23;0.63;;;;;;;10.11;100.00;99982.53;4928737;29;20472;-79
2023/03/20 04:12:51;;;;;;;1.02;0.57;;;;;;;10.12;100.00;99976.25;4950100;28;20042;-79
2023/03/20 04:15:20;;;;;;;3.92;0.52;;;;;;;10.11;100.00;99971.97;4935037;28;20039;-79
2023/03/20 04:17:48;;;;;;;1.08;0.70;;;;;;;10.11;100.00;99969.31;4944469;28;20043;-79
2023/03/20 04:20:17;;;;;;;2.50;1.15;;;;;;;10.06;100.00;99959.22;4957208;28;20039;-79
2023/03/20 04:22:47;;;;;;;2.35;1.17;;;;;;;10.05;100.00;99965.47;4944596;28;20911;-80
2023/03/20 04:25:23;;;;;;;3.47;1.45;;;;;;;10.06;100.00;99967.13;4934209;28;20039;-79
2023/03/20 04:27:54;;;;;;;1.75;1.63;;;;;;;10.05;100.00;99968.09;4955577;28;20035;-79
2023/03/20 04:30:52;;;;;;;3.47;2.03;;;;;;;10.10;100.00;99959.72;4953042;28;20686;-79
2023/03/20 04:33:44;;;;;;;3.67;2.10;;;;;;;10.08;100.00;99959.88;4940054;28;20042;-79
2023/03/20 04:36:15;;;;;;;3.00;2.33;;;;;;;10.05;100.00;99958.38;4962594;28;20058;-79
2023/03/20 04:38:42;;;;;;;7.57;2.25;;;;;;;10.05;100.00;99962.81;4970173;28;20043;-79
2023/03/20 04:41:10;;;;;;;4.07;2.42;;;;;;;10.02;100.00;99956.03;4959287;28;20166;-80
2023/03/20 04:43:39;;;;;;;3.50;2.13;;;;;;;10.00;100.00;99957.19;4938836;28;20035;-79
2023/03/20 04:46:10;;;;;;;3.97;2.60;;;;;;;9.98;100.00;99959.16;4950661;28;20034;-79
2023/03/20 04:48:38;;;;;;;4.65;2.28;;;;;;;9.95;100.00;99955.00;4921791;29;20047;-79
2023/03/20 04:51:06;;;;;;;4.57;2.17;;;;;;;9.91;100.00;99954.47;4939518;28;20380;-79
2023/03/20 04:53:53;;;;;;;6.78;2.70;;;;;;;9.92;100.00;99960.59;4940809;29;20087;-79
2023/03/20 04:56:21;;;;;;;4.28;2.30;;;;;;;9.91;100.00;99964.19;4965810;28;20046;-79
2023/03/20 04:58:50;;;;;;;6.03;2.70;;;;;;;9.95;100.00;99951.53;4945557;28;20031;-79
2023/03/20 05:01:22;;;;;;;8.02;2.95;;;;;;;9.91;100.00;99957.13;4937708;28;20038;-78
2023/03/20 05:03:52;;;;;;;2.58;2.22;;;;;;;9.96;100.00;99961.94;4953948;28;20058;-79
2023/03/20 05:06:21;;;;;;;3.60;2.53;;;;;;;9.97;100.00;99960.13;4956439;28;20039;-79
2023/03/20 05:08:49;;;;;;;4.50;3.38;;;;;;;9.93;100.00;99955.16;4949416;28;20026;-79
2023/03/20 05:11:19;;;;;;;2.83;2.60;;;;;;;9.97;100.00;99957.50;4949399;28;20032;-79
2023/03/20 05:13:59;;;;;;;3.63;2.40;;;;;;;9.93;100.00;99957.81;4914207;28;21091;-80
2023/03/20 05:16:51;;;;;;;4.03;2.38;;;;;;;9.95;100.00;99941.81;4932787;28;20406;-79
2023/03/20 05:19:32;;;;;;;3.17;1.90;;;;;;;9.90;100.00;99929.06;4955251;28;20038;-79
2023/03/20 05:22:05;;;;;;;2.63;1.60;;;;;;;9.90;100.00;99941.44;4955040;28;20035;-80
2023/03/20 05:24:54;;;;;;;1.92;1.73;;;;;;;9.88;100.00;99924.91;4972014;28;20031;-79
2023/03/20 05:27:41;;;;;;;2.45;1.58;;;;;;;9.84;100.00;99923.56;4949264;28;20071;-79
2023/03/20 05:30:33;;;;;;;5.18;1.45;;;;;;;9.84;100.00;99913.84;4935549;28;20042;-80
2023/03/20 05:33:00;;;;;;;1.90;1.77;;;;;;;9.80;100.00;99907.19;4972643;28;20030;-80
2023/03/20 05:35:30;;;;;;;1.30;1.20;;;;;;;9.79;100.00;99898.44;4965107;28;20035;-80
2023/03/20 05:38:21;;;;;;;1.20;1.10;;;;;;;9.79;100.00;99908.19;4953395;28;20035;-79
2023/03/20 05:41:07;;;;;;;3.15;1.20;;;;;;;9.80;100.00;99912.47;4947593;28;20483;-79
2023/03/20 05:43:57;;;;;;;3.75;1.00;;;;;;;9.84;100.00;99911.22;4969709;28;20035;-79
2023/03/20 05:47:03;;;;;;;0.93;0.90;;;;;;;9.82;100.00;99905.25;4911774;29;20040;-79
2023/03/20 05:49:50;;;;;;;3.15;0.88;;;;;;;9.85;100.00;99901.47;4903273;29;20043;-79
2023/03/20 05:52:41;;;;;;;1.83;0.85;;;;;;;9.82;100.00;99888.56;4951572;28;20050;-78
2023/03/20 05:55:24;;;;;;;0.90;0.57;;;;;;;9.85;100.00;99898.81;4960928;28;20531;-79
2023/03/20 05:58:02;;;;;;;1.08;0.70;;;;;;;9.89;100.00;99905.47;4959242;28;20110;-79
2023/03/20 06:00:57;;;;;;;2.25;0.85;;;;;;;9.88;100.00;99904.63;4952733;28;20042;-79
2023/03/20 06:03:58;;;;;;;0.70;0.70;;;;;;;9.88;100.00;99894.06;4956243;28;20062;-79
2023/03/20 06:06:58;;;;;;;0.77;0.60;;;;;;;9.87;100.00;99883.66;4922249;28;20098;-79
2023/03/20 06:09:29;;;;;;;1.65;0.50;;;;;;;9.87;100.00;99896.88;4934422;28;20487;-79
2023/03/20 06:11:59;;;;;;;0.30;0.30;;;;;;;9.84;100.00;99886.63;4952678;28;20134;-79
2023/03/20 06:14:27;;;;;;;2.58;0.50;;;;;;;9.83;100.00;99882.28;4942462;28;20049;-79
2023/03/20 06:17:01;;;;;;;2.17;0.50;;;;;;;9.83;100.00;99877.00;4963178;28;20062;-78
2023/03/20 06:19:29;;;;;;;0.40;0.38;;;;;;;9.77;100.00;99881.94;4944819;29;20086;-79
2023/03/20 06:21:57;;;;;;;5.30;0.43;;;;;;;9.82;100.00;99885.94;4965750;28;20046;-80
2023/03/20 06:24:24;;;;;;;1.38;0.47;;;;;;;9.81;100.00;99895.66;4954888;28;20031;-78
2023/03/20 06:26:54;;;;;;;0.30;0.30;;;;;;;9.83;100.00;99900.78;4940149;28;20043;-78
2023/03/20 06:29:22;;;;;;;0.35;0.35;;;;;;;9.79;100.00;99901.06;4934012;28;20031;-79
2023/03/20 06:31:52;;;;;;;0.55;0.50;;;;;;;9.79;100.00;99909.00;4947263;28;20067;-79
2023/03/20 06:34:29;;;;;;;0.20;0.20;;;;;;;9.81;100.00;99908.84;4935019;28;20034;-79
2023/03/20 06:36:56;;;;;;;2.80;0.40;;;;;;;9.79;100.00;99908.19;4933143;29;20043;-79
2023/03/20 06:39:24;;;;;;;0.20;0.20;;;;;;;9.82;100.00;99905.25;4938080;28;20026;-79
2023/03/20 06:41:52;;;;;;;0.30;0.30;;;;;;;9.82;100.00;99912.31;4939173;28;20027;-79
2023/03/20 06:44:23;;;;;;;0.30;0.30;;;;;;;9.84;100.00;99913.00;4949835;28;20125;-79
2023/03/20 06:47:03;;;;;;;0.38;0.25;;;;;;;9.87;100.00;99928.53;4900485;28;20051;-79
2023/03/20 06:49:31;;;;;;;1.55;0.30;;;;;;;9.86;100.00;99917.16;4954540;28;20562;-79
2023/03/20 06:51:59;;;;;;;0.30;0.30;;;;;;;9.88;100.00;99919.63;4966828;28;20030;-79
2023/03/20 06:54:27;;;;;;;0.77;0.30;;;;;;;9.86;100.00;99911.06;4964997;28;20392;-78
2023/03/20 06:56:55;;;;;;;1.45;0.30;;;;;;;9.89;100.00;99905.47;4930910;29;21217;-79
2023/03/20 06:59:23;;;;;;;0.77;0.30;;;;;;;9.87;100.00;99904.78;4952839;29;20111;-78
2023/03/20 07:01:57;;;;;;;1.60;0.40;;;;;;;9.90;100.00;99913.22;4919288;29;20397;-79
2023/03/20 07:04:26;;;;;;;0.75;0.30;;;;;;;9.89;100.00;99914.19;4943176;29;20166;-79
2023/03/20 07:06:58;;;;;;;0.47;0.30;;;;;;;9.92;100.00;99919.16;4944331;29;20043;-79
2023/03/20 07:09:26;;;;;;;0.65;0.30;;;;;;;9.91;100.00;99917.53;4924684;29;20042;-79
2023/03/20 07:11:54;;;;;;;1.77;0.22;;;;;;;9.95;100.00;99918.06;4928674;29;20035;-79
2023/03/20 07:14:23;;;;;;;0.20;0.20;;;;;;;9.94;100.00;99913.72;4906336;29;20024;-79
2023/03/20 07:16:56;;;;;;;0.20;0.20;;;;;;;9.97;100.00;99926.63;4928290;29;20086;-79
2023/03/20 07:19:24;;;;;;;0.50;0.20;;;;;;;9.97;100.00;99924.00;4922607;29;20032;-80
2023/03/20 07:22:00;;;;;;;0.57;0.35;;;;;;;10.01;100.00;99922.72;4930295;29;20035;-79
2023/03/20 07:24:33;;;;;;;;;;;;;;;9.97;100.00;99926.63;4950218;29;20047;-78
2023/03/20 07:27:02;;;;;;;1.70;0.20;;;;;;;10.01;100.00;99917.44;4931073;29;19922;-79
2023/03/20 07:29:33;;;;;;;2.17;0.30;;;;;;;10.00;100.00;99922.88;4942620;28;20062;-79
2023/03/20 07:32:06;;;;;;;0.75;0.40;;;;;;;10.05;100.00;99920.56;4927272;29;20087;-78
2023/03/20 07:34:38;;;;;;;0.30;0.30;;;;;;;10.04;100.00;99932.97;4944041;29;20035;-78
2023/03/20 07:37:06;;;;;;;0.93;0.20;;;;;;;10.07;100.00;99936.25;4928346;29;20117;-78
2023/03/20 07:39:35;;;;;;;0.52;0.30;;;;;;;10.10;100.00;99935.97;4913854;29;20130;-79
2023/03/20 07:42:41;;;;;;;1.05;0.30;;;;;;;10.12;100.00;99942.75;4899645;29;20060;-79
2023/03/20 07:45:15;;;;;;;0.35;0.20;;;;;;;10.17;100.00;99955.50;4875071;29;20053;-79
2023/03/20 07:47:47;;;;;;;2.60;0.38;;;;;;;10.25;100.00;99949.44;4896364;29;20057;-79
2023/03/20 07:50:15;;;;;;;0.50;0.30;;;;;;;10.28;100.00;99957.06;4929818;29;20046;-79
2023/03/20 07:52:47;;;;;;;0.45;0.30;;;;;;;10.36;100.00;99958.94;4928226;29;20090;-79
2023/03/20 07:55:16;;;;;;;1.58;0.40;;;;;;;10.35;100.00;99954.63;4905922;28;20055;-79
2023/03/20 07:57:48;;;;;;;1.75;0.30;;;;;;;10.42;100.00;99948.56;4933426;28;20055;-79
2023/03/20 08:00:18;;;;;;;0.30;0.28;;;;;;;10.41;100.00;99951.38;4952211;28;20043;-80
2023/03/20 08:02:46;;;;;;;0.88;0.40;;;;;;;10.48;100.00;99949.78;4949855;28;20045;-80
2023/03/20 08:05:16;;;;;;;3.38;0.50;;;;;;;10.48;100.00;99957.72;4955217;28;20062;-80
2023/03/20 08:07:45;;;;;;;1.05;0.30;;;;;;;10.51;100.00;99946.81;4934404;28;20119;-79
2023/03/20 08:10:13;;;;;;;1.60;0.50;;;;;;;10.52;100.00;99952.94;4937164;28;20400;-79
2023/03/20 08:12:42;;;;;;;3.60;0.30;;;;;;;10.56;100.00;99949.00;4942417;28;20035;-79
2023/03/20 08:15:10;;;;;;;1.30;0.43;;;;;;;10.54;100.00;99945.72;4934633;28;20034;-80
2023/03/20 08:17:43;;;;;;;1.77;0.20;;;;;;;10.57;100.00;99942.75;4927404;28;20027;-79
2023/03/20 08:20:13;;;;;;;0.93;0.30;;;;;;;10.57;100.00;99948.03;4930132;28;20087;-79
2023/03/20 08:22:41;;;;;;;2.63;0.30;;;;;;;10.61;100.00;99944.09;4947724;28;20090;-79
2023/03/20 08:25:10;;;;;;;3.00;0.50;;;;;;;10.62;100.00;99945.72;4938154;28;20038;-79
2023/03/20 08:27:39;;;;;;;2.67;0.38;;;;;;;10.69;100.00;99947.78;4957684;28;20045;-79
2023/03/20 08:30:08;;;;;;;1.23;0.38;;;;;;;10.74;100.00;99953.41;4951756;28;20034;-79
2023/03/20 08:32:38;;;;;;;2.25;0.47;;;;;;;10.85;100.00;99957.56;4970240;28;20046;-79
2023/03/20 08:35:07;;;;;;;1.75;0.50;;;;;;;10.88;100.00;99950.16;4960039;28;20090;-79
2023/03/20 08:37:36;;;;;;;2.05;0.40;;;;;;;10.92;100.00;99955.97;4965898;28;20035;-79
2023/03/20 08:40:05;;;;;;;1.52;0.50;;;;;;;10.99;100.00;99959.63;4970517;28;20049;-79
2023/03/20 08:42:32;;;;;;;0.40;0.40;;;;;;;11.01;100.00;99962.09;4944265;28;20031;-79
2023/03/20 08:45:00;;;;;;;3.13;0.70;;;;;;;11.06;100.00;99965.09;4947020;28;20106;-80
2023/03/20 08:47:28;;;;;;;1.60;0.65;;;;;;;11.07;100.00;99955.38;4956201;28;20090;-79
2023/03/20 08:49:56;;;;;;;1.23;0.60;;;;;;;11.12;100.00;99958.34;4943001;28;20047;-79
2023/03/20 08:52:26;;;;;;;1.60;0.60;;;;;;;11.11;100.00;99961.97;4959994;28;20038;-79
2023/03/20 08:54:55;;;;;;;2.92;0.73;;;;;;;11.13;100.00;99967.94;4932768;28;20062;-79
2023/03/20 08:57:23;;;;;;;1.50;0.80;;;;;;;11.08;100.00;99955.22;4945454;28;20118;-79
2023/03/20 08:59:51;;;;;;;2.42;1.25;;;;;;;11.06;100.00;99962.47;4932187;28;20050;-80
2023/03/20 09:02:19;;;;;;;5.05;1.00;;;;;;;11.06;100.00;99959.81;4955798;28;20083;-79
2023/03/20 09:04:47;;;;;;;4.13;1.00;;;;;;;11.04;100.00;99959.16;4936850;28;20038;-79
2023/03/20 09:07:15;;;;;;;3.17;1.00;;;;;;;11.07;100.00;99955.38;4960823;28;20049;-80
2023/03/20 09:09:42;;;;;;;3.08;1.15;;;;;;;11.05;100.00;99958.19;4950146;28;20384;-79
2023/03/20 09:12:12;;;;;;;2.58;1.23;;;;;;;11.06;100.00;99951.03;4932780;28;20030;-79
2023/03/20 09:14:42;;;;;;;3.83;1.30;;;;;;;11.05;100.00;99958.19;4935910;28;20807;-79
2023/03/20 09:17:12;;;;;;;8.65;1.27;;;;;;;11.12;100.00;99958.34;4948218;28;20114;-80
2023/03/20 09:19:43;;;;;;;6.15;1.60;;;;;;;11.18;100.00;99962.19;4948655;28;20047;-80
2023/03/20 09:22:14;;;;;;;2.42;1.23;;;;;;;11.23;100.00;99965.16;4946660;28;20031;-80
2023/03/20 09:24:44;;;;;;;8.52;1.42;;;;;;;11.24;100.00;99954.44;4965694;28;20041;-79
2023/03/20 09:27:15;;;;;;;3.90;1.30;;;;;;;11.28;100.00;99963.69;4950272;28;20035;-79
2023/03/20 09:29:44;;;;;;;4.47;1.38;;;;;;;11.40;100.00;99960.75;4951372;28;20539;-79
2023/03/20 09:32:15;;;;;;;6.55;1.25;;;;;;;11.44;100.00;99956.78;4950061;28;20420;-79
2023/03/20 09:34:45;;;;;;;4.22;1.20;;;;;;;11.47;100.00;99953.81;4934039;28;20043;-79
2023/03/20 09:37:14;;;;;;;4.55;1.40;;;;;;;11.46;100.00;99953.97;4968175;28;20122;-79
2023/03/20 09:39:42;;;;;;;2.00;1.02;;;;;;;11.46;100.00;99946.03;4948218;28;20034;-79
2023/03/20 09:42:26;;;;;;;6.60;1.48;;;;;;;11.52;100.00;99954.16;4947188;28;20483;-79
2023/03/20 09:45:31;;;;;;;5.65;0.90;;;;;;;11.52;100.00;99951.50;4968476;28;20042;-79
2023/03/20 09:48:53;;;;;;;3.85;1.00;;;;;;;11.56;100.00;99959.97;4967059;28;20035;-79
2023/03/20 09:51:49;;;;;;;4.25;1.45;;;;;;;11.56;100.00;99946.72;4933478;28;20137;-79
2023/03/20 09:54:25;;;;;;;3.25;1.10;;;;;;;11.60;100.00;99949.88;4938149;28;20475;-79
2023/03/20 09:56:57;;;;;;;5.25;1.30;;;;;;;11.65;100.00;99956.34;4929365;28;20462;-80
2023/03/20 09:59:30;;;;;;;6.10;1.52;;;;;;;11.71;100.00;99952.19;4936189;28;20127;-79
2023/03/20 10:02:07;;;;;;;8.18;1.70;;;;;;;11.73;100.00;99960.81;4968966;28;20073;-79
2023/03/20 10:04:37;;;;;;;3.97;1.35;;;;;;;11.74;100.00;99953.69;4971598;28;20387;-79
2023/03/20 10:07:06;;;;;;;6.57;1.08;;;;;;;11.70;100.00;99955.84;4962767;28;20035;-79
2023/03/20 10:09:36;;;;;;;3.75;1.23;;;;;;;11.75;100.00;99950.88;4962473;28;20034;-80
2023/03/20 10:12:12;;;;;;;5.30;1.58;;;;;;;11.78;100.00;99957.66;4957876;28;20053;-80
2023/03/20 10:14:49;;;;;;;10.57;1.48;;;;;;;11.80;100.00;99958.34;4968647;28;20110;-79
2023/03/20 10:17:26;;;;;;;;;;;;;;;11.73;100.00;99949.38;4943453;28;20039;-79
2023/03/20 10:19:58;;;;;;;10.45;1.30;;;;;;;11.83;100.00;99959.81;4945801;28;20577;-79
2023/03/20 10:22:36;;;;;;;9.40;1.33;;;;;;;11.85;100.00;99944.59;4949241;28;20039;-79
2023/03/20 10:25:31;;;;;;;8.88;1.50;;;;;;;11.85;100.00;99947.25;4971139;28;20157;-79
2023/03/20 10:28:03;;;;;;;7.20;1.30;;;;;;;11.87;100.00;99943.44;4958877;28;20038;-80
2023/03/20 10:30:54;;;;;;;8.30;1.23;;;;;;;11.87;100.00;99935.50;4943655;28;20468;-80
2023/03/20 10:33:45;;;;;;;10.43;1.45;;;;;;;11.87;100.00;99929.38;4939906;28;20590;-80
2023/03/20 10:36:37;;;;;;;6.28;1.40;;;;;;;11.88;100.00;99936.34;4964439;28;20035;-80
2023/03/20 10:39:37;;;;;;;6.45;1.38;;;;;;;11.87;100.00;99947.91;4969185;28;20034;-79
2023/03/20 10:42:18;;;;;;;9.68;1.63;;;;;;;11.93;100.00;99946.44;4967631;28;20051;-79
2023/03/20 10:45:30;;;;;;;10.55;1.80;;;;;;;11.94;100.00;99937.47;4967216;28;20146;-79
2023/03/20 10:48:03;;;;;;;12.80;1.88;;;;;;;11.93;100.00;99939.28;4944098;28;20857;-79
2023/03/20 10:50:39;;;;;;;10.43;1.50;;;;;;;11.95;100.00;99934.66;4951785;28;20400;-79
2023/03/20 10:53:24;;;;;;;6.60;0.80;;;;;;;11.88;100.00;99934.50;4941687;28;20099;-79
2023/03/20 10:55:57;;;;;;;3.35;0.95;;;;;;;11.88;100.00;99937.13;4966870;28;20065;-79
2023/03/20 10:58:31;;;;;;;10.45;1.30;;;;;;;11.97;100.00;99931.84;4924753;28;20035;-79
2023/03/20 11:01:02;;;;;;;6.72;1.13;;;;;;;12.00;100.00;99926.22;4940531;28;20041;-79
2023/03/20 11:03:33;;;;;;;4.78;1.15;;;;;;;11.98;100.00;99923.75;4968186;28;20030;-79
2023/03/20 11:06:13;;;;;;;8.82;1.42;;;;;;;11.96;100.00;99915.13;4969539;28;20039;-79
2023/03/20 11:08:46;;;;;;;7.00;1.10;;;;;;;11.97;100.00;99919.44;4948142;28;20042;-79
2023/03/20 11:11:22;;;;;;;5.28;1.17;;;;;;;12.07;100.00;99919.25;4932476;29;20121;-79
2023/03/20 11:13:51;;;;;;;12.55;1.33;;;;;;;12.12;100.00;99906.38;4953674;28;20070;-79
2023/03/20 11:16:21;;;;;;;8.48;1.60;;;;;;;12.15;100.00;99897.28;4933715;28;20075;-80
2023/03/20 11:18:52;;;;;;;6.35;1.33;;;;;;;12.17;100.00;99897.91;4954541;28;20053;-79
2023/03/20 11:21:27;;;;;;;9.20;1.27;;;;;;;12.22;100.00;99889.44;4946240;28;20056;-79
2023/03/20 11:23:57;;;;;;;3.00;1.00;;;;;;;12.24;100.00;99877.72;4965185;28;20034;-80
2023/03/20 11:26:39;;;;;;;9.77;1.45;;;;;;;12.32;100.00;99892.75;4948188;28;20030;-79
2023/03/20 11:29:33;;;;;;;10.23;1.45;;;;;;;12.33;100.00;99883.81;4967648;28;20105;-79
2023/03/20 11:32:26;;;;;;;6.60;1.27;;;;;;;12.43;100.00;99882.78;4944112;28;20435;-79
2023/03/20 11:34:57;;;;;;;7.85;1.23;;;;;;;12.46;100.00;99882.44;4953259;28;20124;-79
2023/03/20 11:37:32;;;;;;;8.10;1.52;;;;;;;12.53;100.00;99886.88;4921510;29;20046;-79
2023/03/20 11:40:20;;;;;;;7.30;1.63;;;;;;;12.56;100.00;99884.91;4952461;28;20031;-79
2023/03/20 11:43:02;;;;;;;8.40;1.80;;;;;;;12.62;100.00;99882.41;4951436;28;20039;-79
2023/03/20 11:45:36;;;;;;;14.20;1.88;;;;;;;12.73;100.00;99886.50;4922222;29;20078;-79
2023/03/20 11:48:14;;;;;;;16.33;2.15;;;;;;;12.76;100.00;99875.53;4960753;28;20042;-79
2023/03/20 11:50:56;;;;;;;6.18;1.63;;;;;;;12.83;100.00;99877.50;4939981;28;20035;-79
2023/03/20 11:53:31;;;;;;;8.18;1.65;;;;;;;12.80;100.00;99877.84;4931244;28;20038;-79
2023/03/20 11:56:09;;;;;;;5.65;1.35;;;;;;;12.76;100.00;99880.84;4970168;28;20050;-80
2023/03/20 11:58:49;;;;;;;6.97;1.38;;;;;;;12.74;100.00;99879.38;4932287;29;20062;-79
2023/03/20 12:01:17;;;;;;;7.25;1.98;;;;;;;12.76;100.00;99880.00;4970745;28;20395;-79
2023/03/20 12:03:58;;;;;;;6.80;1.50;;;;;;;12.87;100.00;99876.13;4939227;28;20036;-79
2023/03/20 12:06:42;;;;;;;6.88;1.77;;;;;;;12.93;100.00;99870.16;4944588;28;20028;-80